Current Weather

Longyear

Longyear, Svalbard (ENSB)

Report from: Tuesday, February 27, 2024 9:20 AM UTC
Current time: Tuesday, February 27, 2024 9:59 AM UTC

Nearby weather – Weather history – Daily summaries
Weather forecast

Present weatherVCSH
Temperature-5.0°C (23.0°F)
Wind chill-11.3°C (11.7°F)
Dew point-9.0°C (15.8°F)
Winds 10 kts (5.1 m/s, 11.5 mph) Southeast (130°)
Visibility6.2 mi. (10 km)
Clouds Few clouds 1,000 ft. (305 m)
Scattered clouds 2,000 ft. (610 m)
Ceiling: Broken clouds 5,000 ft. (1,524 m)
Altimeter29.26 in.Hg (991 mB)
Relative humidity73 %
Density altitude-1,651 ft. (-503 m)
Remarks No significant changes expected in the next two hours
Flight conditions Visual Meteorological Conditions
Raw dataENSB 270920Z 13010KT 9999 VCSH FEW010 SCT020 BKN050 M05/M09 Q0991 NOSIG RMK WIND 1400FT 13008KT
An error has occurred. This application may no longer respond until reloaded. Reload 🗙